createdAt,value
2022-10-05T00:01:22.497Z,101168.50
2022-10-05T00:03:49.257Z,101145.97
2022-10-05T00:06:15.801Z,101144.22
2022-10-05T00:08:42.944Z,100971.66
2022-10-05T00:11:13.266Z,101167.22
2022-10-05T00:13:40.108Z,101163.09
2022-10-05T00:16:20.411Z,101158.47
2022-10-05T00:18:50.103Z,101161.31
2022-10-05T00:21:21.151Z,101151.44
2022-10-05T00:23:47.986Z,101019.31
2022-10-05T00:26:23.578Z,101144.50
2022-10-05T00:28:50.577Z,100909.41
2022-10-05T00:31:20.578Z,101118.16
2022-10-05T00:33:48.003Z,101060.53
2022-10-05T00:36:14.906Z,101144.13
2022-10-05T00:38:42.564Z,101152.25
2022-10-05T00:41:21.763Z,101124.00
2022-10-05T00:44:03.780Z,101146.03
2022-10-05T00:47:03.515Z,101025.53
2022-10-05T00:49:59.091Z,101136.38
2022-10-05T00:52:46.043Z,101151.88
2022-10-05T00:55:44.939Z,101136.25
2022-10-05T00:58:29.581Z,101157.84
2022-10-05T01:01:16.670Z,101153.50
2022-10-05T01:04:09.425Z,101146.59
2022-10-05T01:06:41.953Z,101149.94
2022-10-05T01:09:45.644Z,101108.47
2022-10-05T01:12:41.191Z,101138.00
2022-10-05T01:15:13.491Z,101140.91
2022-10-05T01:18:17.308Z,101135.72
2022-10-05T01:21:08.243Z,101101.06
2022-10-05T01:24:02.934Z,101121.69
2022-10-05T01:26:47.547Z,101118.25
2022-10-05T01:29:25.199Z,101119.88
2022-10-05T01:32:12.666Z,101013.34
2022-10-05T01:34:52.804Z,101127.19
2022-10-05T01:37:19.116Z,101122.03
2022-10-05T01:39:59.455Z,101118.25
2022-10-05T01:43:05.107Z,100968.16
2022-10-05T01:45:47.612Z,101108.41
2022-10-05T01:48:32.735Z,101121.50
2022-10-05T01:51:25.704Z,101110.41
2022-10-05T01:54:10.051Z,101057.78
2022-10-05T01:56:46.850Z,101087.84
2022-10-05T01:59:48.765Z,101028.09
2022-10-05T02:02:18.852Z,101102.72
2022-10-05T02:05:02.782Z,101079.38
2022-10-05T02:07:43.646Z,101075.59
2022-10-05T02:10:26.066Z,101093.78
2022-10-05T02:12:59.775Z,101074.28
2022-10-05T02:15:40.540Z,101068.16
2022-10-05T02:18:13.374Z,101104.84
2022-10-05T02:20:43.375Z,101065.13
2022-10-05T02:23:17.119Z,101069.25
2022-10-05T02:25:46.773Z,101082.50
2022-10-05T02:28:22.447Z,101077.09
2022-10-05T02:30:58.902Z,101068.09
2022-10-05T02:33:33.095Z,101065.69
2022-10-05T02:36:05.352Z,101070.22
2022-10-05T02:38:47.182Z,101067.59
2022-10-05T02:41:31.799Z,101069.78
2022-10-05T02:44:28.289Z,101077.81
2022-10-05T02:47:12.505Z,101063.59
2022-10-05T02:50:00.515Z,101049.19
2022-10-05T02:52:43.559Z,101010.41
2022-10-05T02:55:19.482Z,101048.88
2022-10-05T02:58:04.614Z,101056.41
2022-10-05T03:00:39.404Z,100935.66
2022-10-05T03:03:27.959Z,101013.06
2022-10-05T03:06:02.604Z,101019.75
2022-10-05T03:08:38.269Z,101049.31
2022-10-05T03:11:25.428Z,101046.69
2022-10-05T03:14:10.422Z,101036.59
2022-10-05T03:16:52.038Z,101038.09
2022-10-05T03:19:48.813Z,101026.75
2022-10-05T03:22:28.896Z,101033.88
2022-10-05T03:25:24.621Z,101029.34
2022-10-05T03:28:18.922Z,100930.63
2022-10-05T03:31:06.356Z,101013.97
2022-10-05T03:33:32.687Z,101013.63
2022-10-05T03:36:12.545Z,101015.19
2022-10-05T03:38:59.264Z,100986.41
2022-10-05T03:41:48.302Z,100995.03
2022-10-05T03:44:23.261Z,101005.34
2022-10-05T03:47:16.043Z,100971.06
2022-10-05T03:50:17.312Z,101012.47
2022-10-05T03:53:06.294Z,101006.06
2022-10-05T03:55:52.129Z,101025.16
2022-10-05T03:58:25.333Z,101009.50
2022-10-05T04:00:56.081Z,100989.69
2022-10-05T04:03:30.255Z,101013.56
2022-10-05T04:06:02.968Z,100899.19
2022-10-05T04:08:48.338Z,101011.09
2022-10-05T04:11:21.296Z,100999.06
2022-10-05T04:13:57.373Z,100990.44
2022-10-05T04:16:31.546Z,100968.03
2022-10-05T04:19:21.252Z,100976.56
2022-10-05T04:22:09.823Z,101003.41
2022-10-05T04:24:58.539Z,100993.78
2022-10-05T04:27:39.687Z,101006.38
2022-10-05T04:30:12.350Z,101004.94
2022-10-05T04:32:48.288Z,100987.63
2022-10-05T04:35:40.972Z,101004.94
2022-10-05T04:38:37.452Z,101004.09
2022-10-05T04:41:31.658Z,101005.06
2022-10-05T04:44:25.571Z,101005.16
2022-10-05T04:47:16.919Z,100986.28
2022-10-05T04:49:56.623Z,101003.44
2022-10-05T04:52:43.918Z,101004.44
2022-10-05T04:55:22.598Z,101015.81
2022-10-05T04:58:10.296Z,101011.09
2022-10-05T05:00:49.363Z,101010.22
2022-10-05T05:03:51.117Z,100997.31
2022-10-05T05:06:38.976Z,101008.41
2022-10-05T05:09:17.441Z,101013.69
2022-10-05T05:12:05.720Z,101008.22
2022-10-05T05:14:57.683Z,101013.59
2022-10-05T05:17:33.251Z,101011.66
2022-10-05T05:20:18.865Z,101013.38
2022-10-05T05:23:03.954Z,101010.63
2022-10-05T05:25:35.839Z,101009.63
2022-10-05T05:28:23.539Z,101016.34
2022-10-05T05:31:05.467Z,100990.34
2022-10-05T05:33:40.981Z,100995.34
2022-10-05T05:36:33.856Z,101011.63
2022-10-05T05:39:22.009Z,101012.59
2022-10-05T05:41:54.345Z,101007.41
2022-10-05T05:44:25.981Z,100984.81
2022-10-05T05:47:13.913Z,101010.63
2022-10-05T05:50:08.670Z,101007.19
2022-10-05T05:52:41.291Z,100998.44
2022-10-05T05:55:19.005Z,100985.56
2022-10-05T05:58:04.182Z,100995.94
2022-10-05T06:00:37.523Z,101003.44
2022-10-05T06:03:14.736Z,101001.81
2022-10-05T06:05:46.638Z,100993.06
2022-10-05T06:08:49.702Z,101000.59
2022-10-05T06:11:31.715Z,101006.84
2022-10-05T06:14:04.729Z,100960.50
2022-10-05T06:16:37.006Z,101010.31
2022-10-05T06:19:16.640Z,101015.34
2022-10-05T06:21:44.785Z,100894.97
2022-10-05T06:24:15.223Z,100984.25
2022-10-05T06:26:59.636Z,100991.13
2022-10-05T06:29:49.193Z,101007.53
2022-10-05T06:32:34.832Z,100906.78
2022-10-05T06:35:11.614Z,101018.41
2022-10-05T06:37:53.191Z,101014.97
2022-10-05T06:40:34.239Z,101021.88
2022-10-05T06:43:12.447Z,101014.88
2022-10-05T06:46:04.048Z,101012.28
2022-10-05T06:48:51.405Z,100996.50
2022-10-05T06:51:43.235Z,101006.81
2022-10-05T06:54:17.826Z,100880.41
2022-10-05T06:57:15.005Z,100994.97
2022-10-05T06:59:53.313Z,101001.63
2022-10-05T07:02:31.126Z,100969.91
2022-10-05T07:05:27.471Z,101000.38
2022-10-05T07:07:58.021Z,101009.13
2022-10-05T07:11:04.566Z,100877.38
2022-10-05T07:14:07.851Z,100992.34
2022-10-05T07:16:49.416Z,100991.31
2022-10-05T07:19:32.513Z,100965.25
2022-10-05T07:22:27.399Z,100973.97
2022-10-05T07:25:08.500Z,100988.13
2022-10-05T07:28:02.676Z,100948.84
2022-10-05T07:30:33.563Z,100920.31
2022-10-05T07:33:24.193Z,100876.34
2022-10-05T07:36:18.661Z,100985.94
2022-10-05T07:38:58.737Z,100970.38
2022-10-05T07:41:31.252Z,100994.22
2022-10-05T07:44:12.934Z,100992.72
2022-10-05T07:47:02.089Z,100988.38
2022-10-05T07:49:57.951Z,100992.50
2022-10-05T07:52:38.003Z,100947.56
2022-10-05T07:55:19.090Z,101001.91
2022-10-05T07:58:02.534Z,100993.84
2022-10-05T08:00:48.814Z,100965.28
2022-10-05T08:03:40.774Z,100995.38
2022-10-05T08:06:16.241Z,100959.41
2022-10-05T08:08:57.344Z,100959.06
2022-10-05T08:11:50.115Z,100992.41
2022-10-05T08:14:25.485Z,100995.84
2022-10-05T08:16:55.635Z,101012.34
2022-10-05T08:19:32.899Z,100987.25
2022-10-05T08:22:06.258Z,100995.72
2022-10-05T08:24:41.826Z,101005.25
2022-10-05T08:27:08.079Z,101003.31
2022-10-05T08:29:41.185Z,100988.59
2022-10-05T08:32:30.435Z,101003.81
2022-10-05T08:35:21.319Z,101000.38
2022-10-05T08:37:49.289Z,100983.97
2022-10-05T08:40:18.638Z,100992.31
2022-10-05T08:43:09.980Z,100997.03
2022-10-05T08:45:55.185Z,100999.69
2022-10-05T08:48:24.743Z,100967.88
2022-10-05T08:51:26.703Z,100979.78
2022-10-05T08:54:02.013Z,100996.00
2022-10-05T08:56:37.370Z,100995.19
2022-10-05T08:59:27.736Z,100997.22
2022-10-05T09:02:19.073Z,100994.88
2022-10-05T09:05:27.754Z,100970.28
2022-10-05T09:08:20.643Z,100976.19
2022-10-05T09:11:11.504Z,100988.25
2022-10-05T09:13:47.090Z,100981.13
2022-10-05T09:16:58.538Z,100966.94
2022-10-05T09:19:43.738Z,100975.06
2022-10-05T09:22:33.745Z,100926.56
2022-10-05T09:25:18.477Z,100979.81
2022-10-05T09:28:08.205Z,100969.88
2022-10-05T09:31:12.519Z,100987.13
2022-10-05T09:33:39.169Z,100958.91
2022-10-05T09:36:30.138Z,100983.03
2022-10-05T09:39:02.458Z,100984.91
2022-10-05T09:41:44.077Z,100978.09
2022-10-05T09:47:29.083Z,100939.31
2022-10-05T09:50:14.174Z,100972.69
2022-10-05T09:53:24.055Z,100963.25
2022-10-05T09:56:21.011Z,100969.31
2022-10-05T09:58:56.496Z,100972.69
2022-10-05T10:01:41.114Z,100970.25
2022-10-05T10:04:26.431Z,100958.22
2022-10-05T10:07:36.383Z,100961.06
2022-10-05T10:10:29.151Z,100966.09
2022-10-05T10:13:14.371Z,100957.97
2022-10-05T10:15:54.641Z,100955.47
2022-10-05T10:18:39.898Z,100945.78
2022-10-05T10:21:30.913Z,100959.22
2022-10-05T10:24:15.554Z,100948.50
2022-10-05T10:26:44.992Z,100946.06
2022-10-05T10:29:20.397Z,100937.97
2022-10-05T10:32:16.408Z,100925.03
2022-10-05T10:35:08.157Z,100930.88
2022-10-05T10:37:53.042Z,100936.97
2022-10-05T10:40:58.004Z,100938.88
2022-10-05T10:43:27.502Z,100931.38
2022-10-05T10:46:06.388Z,100921.22
2022-10-05T10:48:53.829Z,100929.19
2022-10-05T10:51:58.253Z,100927.31
2022-10-05T10:54:42.079Z,100861.16
2022-10-05T10:57:34.653Z,100922.31
2022-10-05T11:00:15.515Z,100901.34
2022-10-05T11:03:00.767Z,100911.91
2022-10-05T11:05:48.788Z,100896.63
2022-10-05T11:08:41.259Z,100894.72
2022-10-05T11:11:19.843Z,100835.28
2022-10-05T11:14:26.459Z,100894.78
2022-10-05T11:17:25.175Z,100895.06
2022-10-05T11:20:05.059Z,100869.06
2022-10-05T11:22:48.018Z,100860.31
2022-10-05T11:25:36.229Z,100877.94
2022-10-05T11:28:21.563Z,100880.69
2022-10-05T11:31:30.201Z,100889.63
2022-10-05T11:34:09.825Z,100870.06
2022-10-05T11:37:15.861Z,100859.03
2022-10-05T11:39:44.532Z,100859.72
2022-10-05T11:42:41.439Z,100864.09
2022-10-05T11:45:19.036Z,100836.66
2022-10-05T11:48:07.236Z,100842.44
2022-10-05T11:50:56.158Z,100843.97
2022-10-05T11:53:37.420Z,100713.72
2022-10-05T11:56:25.683Z,100839.53
2022-10-05T11:59:20.820Z,100835.22
2022-10-05T12:02:05.478Z,100836.09
2022-10-05T12:04:45.342Z,100806.31
2022-10-05T12:07:32.049Z,100790.47
2022-10-05T12:10:21.176Z,100803.50
2022-10-05T12:13:03.804Z,100752.53
2022-10-05T12:15:50.251Z,100796.06
2022-10-05T12:18:32.507Z,100784.59
2022-10-05T12:21:05.196Z,100772.56
2022-10-05T12:23:42.319Z,100770.44
2022-10-05T12:26:16.274Z,100759.84
2022-10-05T12:29:01.080Z,100771.31
2022-10-05T12:31:41.456Z,100753.75
2022-10-05T12:34:20.776Z,100727.16
2022-10-05T12:37:04.057Z,100722.25
2022-10-05T12:39:56.796Z,100733.22
2022-10-05T12:42:51.165Z,100747.47
2022-10-05T12:45:31.836Z,100720.25
2022-10-05T12:48:19.767Z,100731.13
2022-10-05T12:50:51.074Z,100683.31
2022-10-05T12:53:48.399Z,100720.84
2022-10-05T12:56:21.706Z,100715.69
2022-10-05T12:58:57.496Z,100699.44
2022-10-05T13:02:05.770Z,100712.50
2022-10-05T13:04:44.061Z,100664.59
2022-10-05T13:07:39.268Z,100659.66
2022-10-05T13:10:08.874Z,100689.31
2022-10-05T13:12:54.267Z,100679.97
2022-10-05T13:15:43.900Z,100686.03
2022-10-05T13:18:29.658Z,100679.44
2022-10-05T13:21:12.408Z,100659.19
2022-10-05T13:24:06.927Z,100681.91
2022-10-05T13:26:37.944Z,100667.31
2022-10-05T13:29:33.119Z,100655.97
2022-10-05T13:32:15.694Z,100658.69
2022-10-05T13:34:53.040Z,100667.91
2022-10-05T13:37:50.320Z,100675.19
2022-10-05T13:40:49.473Z,100671.00
2022-10-05T13:43:25.379Z,100656.00
2022-10-05T13:45:57.044Z,100661.06
2022-10-05T13:48:49.507Z,100659.84
2022-10-05T13:51:19.010Z,100684.72
2022-10-05T13:53:53.077Z,100673.09
2022-10-05T13:56:33.489Z,100672.16
2022-10-05T13:59:30.574Z,100678.28
2022-10-05T14:02:09.233Z,100643.97
2022-10-05T14:04:58.275Z,100677.19
2022-10-05T14:07:48.790Z,100658.50
2022-10-05T14:10:31.370Z,100683.16
2022-10-05T14:12:58.115Z,100656.78
2022-10-05T14:15:38.489Z,100674.31
2022-10-05T14:18:37.382Z,100695.25
2022-10-05T14:21:13.173Z,100699.94
2022-10-05T14:23:40.025Z,100680.88
2022-10-05T14:26:34.752Z,100698.97
2022-10-05T14:29:17.127Z,100696.97
2022-10-05T14:32:13.407Z,100693.47
2022-10-05T14:34:45.712Z,100694.13
2022-10-05T14:37:24.703Z,100704.16
2022-10-05T14:39:54.621Z,100699.88
2022-10-05T14:42:27.014Z,100667.72
2022-10-05T14:45:12.498Z,100701.59
2022-10-05T14:47:53.008Z,100675.88
2022-10-05T14:50:26.026Z,100704.25
2022-10-05T14:53:11.251Z,100697.72
2022-10-05T14:56:17.203Z,100705.94
2022-10-05T14:59:04.193Z,100675.34
2022-10-05T15:01:33.858Z,100711.38
2022-10-05T15:04:16.625Z,100708.97
2022-10-05T15:06:53.367Z,100733.50
2022-10-05T15:09:24.617Z,100702.97
2022-10-05T15:11:53.582Z,100733.72
2022-10-05T15:14:38.185Z,100726.84
2022-10-05T15:17:16.121Z,100701.91
2022-10-05T15:19:48.111Z,100730.19
2022-10-05T15:22:21.738Z,100696.56
2022-10-05T15:25:12.938Z,100758.47
2022-10-05T15:28:05.604Z,100754.63
2022-10-05T15:30:37.305Z,100762.09
2022-10-05T15:33:15.430Z,100764.63
2022-10-05T15:35:55.835Z,100772.84
2022-10-05T15:38:28.519Z,100729.53
2022-10-05T15:41:22.485Z,100771.69
2022-10-05T15:44:07.396Z,100784.88
2022-10-05T15:46:43.621Z,100787.91
2022-10-05T15:49:24.203Z,100779.09
2022-10-05T15:52:23.760Z,100772.28
2022-10-05T15:55:09.087Z,100798.97
2022-10-05T15:57:47.979Z,100807.31
2022-10-05T16:00:19.879Z,100812.34
2022-10-05T16:02:52.087Z,100829.88
2022-10-05T16:05:56.815Z,100802.78
2022-10-05T16:08:50.370Z,100830.97
2022-10-05T16:11:46.357Z,100815.34
2022-10-05T16:14:33.000Z,100839.72
2022-10-05T16:17:18.676Z,100841.69
2022-10-05T16:20:07.962Z,100837.34
2022-10-05T16:22:49.174Z,100839.06
2022-10-05T16:25:36.428Z,100852.16
2022-10-05T16:28:06.094Z,100872.31
2022-10-05T16:31:09.894Z,100883.16
2022-10-05T16:34:17.227Z,100883.91
2022-10-05T16:36:57.636Z,100883.72
2022-10-05T16:39:48.478Z,100898.53
2022-10-05T16:42:32.761Z,100872.13
2022-10-05T16:45:20.699Z,100868.34
2022-10-05T16:48:03.007Z,100882.41
2022-10-05T16:50:58.119Z,100884.84
2022-10-05T16:53:36.221Z,100898.72
2022-10-05T16:56:11.131Z,100891.19
2022-10-05T16:58:59.433Z,100901.44
2022-10-05T17:01:58.764Z,100910.50
2022-10-05T17:05:02.176Z,100864.38
2022-10-05T17:07:57.902Z,100904.03
2022-10-05T17:10:37.084Z,100922.06
2022-10-05T17:13:40.965Z,100901.81
2022-10-05T17:16:33.084Z,100919.91
2022-10-05T17:19:32.158Z,100895.72
2022-10-05T17:22:03.410Z,100926.09
2022-10-05T17:24:49.128Z,100902.59
2022-10-05T17:27:20.987Z,100935.97
2022-10-05T17:29:47.561Z,100939.22
2022-10-05T17:32:17.050Z,100928.19
2022-10-05T17:35:18.251Z,100934.38
2022-10-05T17:38:27.562Z,100917.06
2022-10-05T17:41:00.201Z,100925.44
2022-10-05T17:43:28.506Z,100922.19
2022-10-05T17:46:03.353Z,100943.94
2022-10-05T17:48:48.260Z,100963.19
2022-10-05T17:51:53.050Z,100957.03
2022-10-05T17:54:43.986Z,100951.47
2022-10-05T17:57:10.238Z,100962.34
2022-10-05T18:00:07.437Z,100968.97
2022-10-05T18:02:39.785Z,100969.81
2022-10-05T18:05:12.044Z,100974.34
2022-10-05T18:07:40.186Z,100968.19
2022-10-05T18:10:09.505Z,100986.22
2022-10-05T18:12:39.236Z,100970.69
2022-10-05T18:15:05.484Z,100971.69
2022-10-05T18:18:32.051Z,100968.69
2022-10-05T18:21:14.315Z,100969.03
2022-10-05T18:23:52.555Z,100968.34
2022-10-05T18:26:32.651Z,100974.00
2022-10-05T18:29:47.183Z,100983.09
2022-10-05T18:32:29.246Z,100973.66
2022-10-05T18:35:03.441Z,100979.00
2022-10-05T18:37:56.944Z,100995.38
2022-10-05T18:40:39.874Z,100994.09
2022-10-05T18:43:27.637Z,100989.72
2022-10-05T18:46:32.577Z,101005.31
2022-10-05T18:49:01.620Z,101011.56
2022-10-05T18:51:39.457Z,100994.28
2022-10-05T18:54:32.181Z,100983.44
2022-10-05T18:57:12.398Z,100990.72
2022-10-05T18:59:51.343Z,101002.75
2022-10-05T19:02:47.390Z,101024.53
2022-10-05T19:05:49.138Z,101027.38
2022-10-05T19:08:41.130Z,101017.78
2022-10-05T19:11:27.799Z,101020.50
2022-10-05T19:14:22.057Z,101019.16
2022-10-05T19:17:00.426Z,101018.78
2022-10-05T19:19:43.907Z,101025.88
2022-10-05T19:22:22.001Z,101026.59
2022-10-05T19:25:21.566Z,101029.47
2022-10-05T19:28:12.881Z,101026.53
2022-10-05T19:30:59.121Z,101025.88
2022-10-05T19:34:07.534Z,101007.16
2022-10-05T19:37:22.276Z,101034.53
2022-10-05T19:40:04.617Z,100971.63
2022-10-05T19:42:45.041Z,101030.22
2022-10-05T19:45:17.730Z,101033.06
2022-10-05T19:48:02.339Z,101014.69
2022-10-05T19:50:32.633Z,100990.84
2022-10-05T19:53:13.861Z,100998.38
2022-10-05T19:55:43.474Z,101043.44
2022-10-05T19:58:22.183Z,101036.63
2022-10-05T20:01:00.821Z,100997.84
2022-10-05T20:03:32.315Z,101035.88
2022-10-05T20:06:01.152Z,100991.53
2022-10-05T20:08:36.905Z,100896.03
2022-10-05T20:11:07.358Z,101045.75
2022-10-05T20:13:35.169Z,101052.00
2022-10-05T20:16:35.695Z,101066.50
2022-10-05T20:19:23.899Z,101055.69
2022-10-05T20:21:59.695Z,101070.47
2022-10-05T20:24:28.544Z,101073.34
2022-10-05T20:27:06.899Z,101046.41
2022-10-05T20:29:41.247Z,101025.31
2022-10-05T20:32:12.560Z,101061.94
2022-10-05T20:34:44.822Z,101048.19
2022-10-05T20:37:14.187Z,101087.22
2022-10-05T20:39:40.967Z,101069.56
2022-10-05T20:42:08.322Z,101100.19
2022-10-05T20:44:35.419Z,101086.78
2022-10-05T20:47:02.071Z,101112.97
2022-10-05T20:49:30.950Z,101105.38
2022-10-05T20:51:58.667Z,101110.06
2022-10-05T20:54:26.434Z,101090.06
2022-10-05T20:56:54.761Z,101079.72
2022-10-05T20:59:25.527Z,101095.38
2022-10-05T21:01:52.185Z,101136.16
2022-10-05T21:04:23.860Z,101125.50
2022-10-05T21:06:50.635Z,101130.00
2022-10-05T21:09:21.241Z,101146.88
2022-10-05T21:11:54.422Z,101153.56
2022-10-05T21:14:20.868Z,101163.59
2022-10-05T21:16:47.267Z,101150.94
2022-10-05T21:19:14.269Z,101128.50
2022-10-05T21:21:42.413Z,101234.66
2022-10-05T21:24:09.655Z,101271.38
2022-10-05T21:26:37.383Z,101182.34
2022-10-05T21:29:07.786Z,101258.72
2022-10-05T21:31:37.299Z,101228.19
2022-10-05T21:34:04.705Z,101205.31
2022-10-05T21:36:32.137Z,101198.94
2022-10-05T21:38:58.511Z,101233.59
2022-10-05T21:41:25.195Z,101231.41
2022-10-05T21:43:51.701Z,101196.72
2022-10-05T21:46:22.428Z,101123.38
2022-10-05T21:48:49.509Z,101111.66
2022-10-05T21:51:18.753Z,101224.97
2022-10-05T21:53:53.375Z,101201.47
2022-10-05T21:56:22.275Z,101247.28
2022-10-05T21:58:50.078Z,101203.00
2022-10-05T22:01:22.273Z,101228.06
2022-10-05T22:03:49.186Z,101211.84
2022-10-05T22:06:15.665Z,101193.97
2022-10-05T22:08:42.034Z,101274.22
2022-10-05T22:11:12.015Z,101258.59
2022-10-05T22:13:52.063Z,101273.22
2022-10-05T22:16:21.157Z,101315.09
2022-10-05T22:18:48.917Z,101313.97
2022-10-05T22:21:16.473Z,101296.88
2022-10-05T22:23:45.439Z,101213.50
2022-10-05T22:26:16.705Z,101306.13
2022-10-05T22:28:43.554Z,101325.50
2022-10-05T22:31:11.549Z,101322.06
2022-10-05T22:33:38.130Z,101329.38
2022-10-05T22:36:05.838Z,101322.66
2022-10-05T22:38:32.813Z,101337.16
2022-10-05T22:40:59.372Z,101358.13
2022-10-05T22:43:26.991Z,101331.91
2022-10-05T22:45:54.073Z,101325.69
2022-10-05T22:48:20.616Z,101348.81
2022-10-05T22:50:49.263Z,101378.19
2022-10-05T22:53:15.673Z,101373.75
2022-10-05T22:55:42.023Z,101375.97
2022-10-05T22:58:08.375Z,101408.66
2022-10-05T23:00:56.872Z,101409.81
2022-10-05T23:03:21.129Z,101428.91
2022-10-05T23:05:47.507Z,101432.09
2022-10-05T23:08:13.967Z,101434.75
2022-10-05T23:10:40.304Z,101479.28
2022-10-05T23:13:07.827Z,101457.81
2022-10-05T23:15:34.419Z,101469.19
2022-10-05T23:18:00.789Z,101433.97
2022-10-05T23:20:27.305Z,101453.97
2022-10-05T23:22:53.868Z,101417.38
2022-10-05T23:25:22.069Z,101452.50
2022-10-05T23:27:48.486Z,101469.53
2022-10-05T23:30:14.939Z,101440.06
2022-10-05T23:32:43.370Z,101441.84
2022-10-05T23:35:12.252Z,101446.97
2022-10-05T23:37:43.892Z,101435.63
2022-10-05T23:40:14.210Z,101459.88
2022-10-05T23:42:41.261Z,101475.38
2022-10-05T23:45:09.984Z,101497.16
2022-10-05T23:47:36.515Z,101505.16
2022-10-05T23:50:04.511Z,101499.94
2022-10-05T23:52:30.877Z,101432.13
2022-10-05T23:54:57.285Z,101505.72
2022-10-05T23:57:23.719Z,101511.72
2022-10-05T23:59:50.278Z,101507.25
